Airfield :
LOGIN :

Register | Disclaimer

   EN    FR    IT 

 










Legend :    VFR   Marginal VFR   IFR   Intensive IFR   Very Intensive IFR
Visi :
Ceiling :
>= 8 km
>= 3000ft
5 to 8 km
1000 to 3000 ft
1500m to 5 km
500 to 1000 ft
800 to 1500m
200 to 500 ft
< 800m
< 200 ft
Symbols :   Thunderstorms  Fog  Heavy snow  Heavy precipitations  Wind > 20 kt
SIGMETs :     Misc.  Thunderstorms  Icing  Turbulence  Mountain Waves  Volcanic Ashes






- Airport Elevation : 370 ft


EBBE - Beauvechain AB

CURRENT METAR :
  • 271825Z 18010KT 9999 FEW007 SCT018 BKN032 08/06 Q0999 WHT WHT TEMPO GRN

EXPIRED METARs :
  • 271755Z 19011KT 9999 FEW007 SCT018 BKN032 08/06 Q1000 WHT WHT TEMPO GRN
  • 271725Z 19010KT 9999 FEW007 SCT018 BKN032 08/06 Q1001 WHT WHT TEMPO GRN
  • 271655Z 19010KT 9999 FEW007 SCT016 BKN024 08/06 Q1001 WHT WHT TEMPO GRN
  • 271625Z 19009KT 9999 FEW009 SCT012TCU BKN027 08/07 Q1002 GRN WHT TEMPO GRN
  • 271613Z 19011KT 4000 -SHRA FEW009 BKN013TCU BKN020 08/06 Q1002 GRN WHT TEMPO GRN
  • 271555Z 19011KT 9999 FEW009 BKN017 BKN030 08/06 Q1002 WHT WHT TEMPO GRN
  • 271535Z 19010KT 9999 FEW009 BKN017 BKN030 08/06 Q1003 WHT WHT TEMPO GRN

TAF TAF EBBE
Valid from the 27 at 13:00 until the 27 at 22:00 UTC


271141Z 2713/2722 20010KT 9999 FEW010 BKN014
TEMPO 2713/2722 20012G20KT 4000 -SHRA -RA SCT008 SCT012TCU BKN014
TEMPO 2713/2722 20015G25KT 3000 SHRA RA SCT006 SCT010TCU BKN012



MET'MAP, your aeronautical weather chart ! - Copyright ORBIFLY December 2007 - Disclaimer

ORBIFLY MET'MAP TEAM :

Programming & Development : Alexandra Zaïnal
Concept & original design : Baudouin d'Aumeries
Assistance for programming : Marc-Olivier Méhu
Technical & hardware support : Manuel Goepfert

Contact : metmap@orbifly.com




SOURCES & CREDITS :

   NOAA